createdAt,value
2017-03-30T00:00:15.738Z,951.8
2017-03-30T00:01:23.885Z,951.8
2017-03-30T00:02:32.049Z,951.8
2017-03-30T00:03:40.613Z,951.8
2017-03-30T00:04:48.095Z,951.8
2017-03-30T00:05:56.186Z,951.8
2017-03-30T00:07:04.324Z,951.8
2017-03-30T00:08:12.352Z,951.8
2017-03-30T00:09:20.444Z,951.9
2017-03-30T00:10:28.532Z,951.8
2017-03-30T00:11:36.626Z,951.8
2017-03-30T00:12:44.769Z,951.8
2017-03-30T00:13:52.943Z,951.8
2017-03-30T00:15:01.176Z,951.8
2017-03-30T00:16:08.980Z,951.8
2017-03-30T00:17:17.066Z,951.8
2017-03-30T00:18:25.206Z,951.8
2017-03-30T00:19:33.777Z,951.8
2017-03-30T00:20:41.374Z,951.8
2017-03-30T00:21:49.425Z,951.8
2017-03-30T00:22:57.512Z,951.8
2017-03-30T00:24:05.658Z,951.8
2017-03-30T00:25:13.881Z,951.8
2017-03-30T00:26:21.774Z,951.8
2017-03-30T00:27:29.866Z,951.8
2017-03-30T00:28:37.951Z,951.8
2017-03-30T00:29:46.099Z,951.8
2017-03-30T00:30:54.136Z,951.8
2017-03-30T00:32:02.225Z,951.8
2017-03-30T00:33:10.310Z,951.8
2017-03-30T00:34:18.394Z,951.8
2017-03-30T00:35:27.175Z,951.7
2017-03-30T00:36:34.575Z,951.8
2017-03-30T00:37:42.660Z,951.8
2017-03-30T00:38:50.753Z,951.8
2017-03-30T00:39:58.843Z,951.8
2017-03-30T00:41:07.432Z,951.8
2017-03-30T00:42:15.018Z,951.8
2017-03-30T00:43:23.110Z,951.7
2017-03-30T00:44:31.196Z,951.8
2017-03-30T00:45:39.383Z,951.8
2017-03-30T00:46:47.515Z,951.7
2017-03-30T00:47:55.460Z,951.7
2017-03-30T00:49:03.546Z,951.8
2017-03-30T00:50:11.796Z,951.7
2017-03-30T00:51:19.779Z,951.7
2017-03-30T00:52:28.314Z,951.7
2017-03-30T00:53:35.899Z,951.7
2017-03-30T00:54:43.989Z,951.7
2017-03-30T00:55:52.078Z,951.7
2017-03-30T00:57:00.226Z,951.7
2017-03-30T00:58:08.307Z,951.7
2017-03-30T00:59:16.347Z,951.7
2017-03-30T01:00:24.426Z,951.6
2017-03-30T01:01:32.704Z,951.7
2017-03-30T01:02:40.601Z,951.7
2017-03-30T01:03:48.744Z,951.7
2017-03-30T01:04:56.775Z,951.6
2017-03-30T01:06:04.863Z,951.6
2017-03-30T01:07:13.481Z,951.7
2017-03-30T01:08:21.043Z,951.6
2017-03-30T01:09:29.182Z,951.7
2017-03-30T01:10:37.218Z,951.7
2017-03-30T01:11:45.305Z,951.6
2017-03-30T01:12:53.405Z,951.7
2017-03-30T01:14:01.481Z,951.6
2017-03-30T01:15:09.624Z,951.6
2017-03-30T01:16:17.650Z,951.6
2017-03-30T01:17:25.740Z,951.6
2017-03-30T01:18:33.833Z,951.6
2017-03-30T01:19:41.932Z,951.6
2017-03-30T01:20:50.069Z,951.6
2017-03-30T01:21:58.104Z,951.6
2017-03-30T01:23:06.736Z,951.6
2017-03-30T01:24:14.315Z,951.6
2017-03-30T01:25:22.363Z,951.6
2017-03-30T01:26:30.512Z,951.6
2017-03-30T01:27:38.543Z,951.6
2017-03-30T01:28:46.631Z,951.6
2017-03-30T01:29:54.719Z,951.6
2017-03-30T01:31:02.810Z,951.5
2017-03-30T01:32:10.954Z,951.6
2017-03-30T01:33:18.980Z,951.5
2017-03-30T01:34:27.094Z,951.5
2017-03-30T01:35:35.158Z,951.6
2017-03-30T01:36:43.244Z,951.5
2017-03-30T01:37:51.391Z,951.5
2017-03-30T01:39:00.020Z,951.5
2017-03-30T01:40:07.506Z,951.5
2017-03-30T01:41:15.592Z,951.5
2017-03-30T01:42:23.685Z,951.5
2017-03-30T01:43:31.829Z,951.5
2017-03-30T01:44:39.888Z,951.5
2017-03-30T01:45:47.963Z,951.5
2017-03-30T01:46:56.036Z,951.6
2017-03-30T01:48:04.127Z,951.6
2017-03-30T01:49:12.432Z,951.6
2017-03-30T01:50:20.480Z,951.5
2017-03-30T01:51:28.385Z,951.6
2017-03-30T01:52:36.475Z,951.6
2017-03-30T01:53:44.563Z,951.5
2017-03-30T01:54:53.155Z,951.6
2017-03-30T01:56:00.787Z,951.5
2017-03-30T01:57:08.822Z,951.5
2017-03-30T01:58:16.912Z,951.5
2017-03-30T01:59:25.001Z,951.5
2017-03-30T02:00:33.314Z,951.4
2017-03-30T02:01:41.172Z,951.5
2017-03-30T02:02:49.259Z,951.5
2017-03-30T02:03:57.344Z,951.5
2017-03-30T02:05:05.429Z,951.5
2017-03-30T02:06:13.576Z,951.5
2017-03-30T02:07:21.609Z,951.5
2017-03-30T02:08:29.696Z,951.5
2017-03-30T02:09:37.787Z,951.5
2017-03-30T02:10:46.520Z,951.5
2017-03-30T02:11:54.137Z,951.5
2017-03-30T02:13:02.051Z,951.6
2017-03-30T02:14:10.135Z,951.5
2017-03-30T02:15:18.215Z,951.5
2017-03-30T02:16:26.307Z,951.5
2017-03-30T02:17:34.448Z,951.5
2017-03-30T02:18:42.480Z,951.5
2017-03-30T02:19:50.564Z,951.5
2017-03-30T02:20:58.654Z,951.5
2017-03-30T02:22:06.830Z,951.5
2017-03-30T02:23:14.887Z,951.5
2017-03-30T02:24:22.912Z,951.4
2017-03-30T02:25:31.003Z,951.5
2017-03-30T02:26:39.344Z,951.5
2017-03-30T02:27:47.182Z,951.5
2017-03-30T02:28:55.324Z,951.4
2017-03-30T02:30:03.348Z,951.5
2017-03-30T02:31:11.443Z,951.4
2017-03-30T02:32:19.524Z,951.4
2017-03-30T02:33:27.616Z,951.5
2017-03-30T02:34:35.763Z,951.5
2017-03-30T02:35:43.791Z,951.5
2017-03-30T02:36:51.877Z,951.4
2017-03-30T02:38:00.066Z,951.4
2017-03-30T02:39:08.049Z,951.5
2017-03-30T02:40:16.639Z,951.5
2017-03-30T02:41:24.232Z,951.4
2017-03-30T02:42:32.369Z,951.4
2017-03-30T02:43:40.398Z,951.4
2017-03-30T02:44:48.492Z,951.4
2017-03-30T02:45:56.635Z,951.4
2017-03-30T02:47:04.668Z,951.4
2017-03-30T02:48:12.884Z,951.4
2017-03-30T02:49:20.966Z,951.4
2017-03-30T02:50:28.946Z,951.4
2017-03-30T02:51:37.136Z,951.4
2017-03-30T02:52:45.107Z,951.4
2017-03-30T02:53:53.195Z,951.4
2017-03-30T02:55:01.280Z,951.4
2017-03-30T02:56:09.362Z,951.4
2017-03-30T02:57:17.957Z,951.3
2017-03-30T02:58:25.594Z,951.4
2017-03-30T02:59:33.788Z,951.3
2017-03-30T03:00:41.713Z,951.4
2017-03-30T03:01:49.803Z,951.3
2017-03-30T03:02:57.940Z,951.3
2017-03-30T03:04:05.973Z,951.3
2017-03-30T03:05:14.062Z,951.3
2017-03-30T03:06:22.157Z,951.3
2017-03-30T03:07:30.232Z,951.4
2017-03-30T03:08:38.379Z,951.3
2017-03-30T03:09:46.479Z,951.4
2017-03-30T03:10:54.559Z,951.3
2017-03-30T03:12:02.590Z,951.3
2017-03-30T03:13:10.675Z,951.3
2017-03-30T03:14:19.273Z,951.3
2017-03-30T03:15:26.847Z,951.3
2017-03-30T03:16:34.937Z,951.3
2017-03-30T03:17:43.024Z,951.3
2017-03-30T03:18:51.110Z,951.3
2017-03-30T03:19:59.257Z,951.3
2017-03-30T03:21:07.370Z,951.3
2017-03-30T03:22:15.382Z,951.3
2017-03-30T03:23:23.473Z,951.3
2017-03-30T03:24:31.560Z,951.3
2017-03-30T03:25:39.705Z,951.3
2017-03-30T03:26:47.729Z,951.3
2017-03-30T03:27:55.820Z,951.2
2017-03-30T03:29:03.908Z,951.3
2017-03-30T03:30:12.501Z,951.2
2017-03-30T03:31:20.195Z,951.2
2017-03-30T03:32:28.235Z,951.3
2017-03-30T03:33:36.270Z,951.2
2017-03-30T03:34:44.347Z,951.2
2017-03-30T03:35:52.452Z,951.2
2017-03-30T03:37:00.574Z,951.2
2017-03-30T03:38:08.605Z,951.2
2017-03-30T03:39:16.691Z,951.2
2017-03-30T03:40:24.782Z,951.2
2017-03-30T03:41:32.873Z,951.2
2017-03-30T03:42:41.037Z,951.2
2017-03-30T03:43:49.046Z,951.2
2017-03-30T03:44:57.137Z,951.1
2017-03-30T03:46:05.729Z,951.1
2017-03-30T03:47:13.461Z,951.1
2017-03-30T03:48:21.488Z,951.1
2017-03-30T03:49:29.507Z,951.1
2017-03-30T03:50:37.569Z,951.1
2017-03-30T03:51:45.664Z,951.2
2017-03-30T03:52:53.824Z,951.1
2017-03-30T03:54:01.889Z,951.2
2017-03-30T03:55:09.916Z,951.2
2017-03-30T03:56:18.014Z,951.2
2017-03-30T03:57:26.095Z,951.2
2017-03-30T03:58:34.310Z,951.1
2017-03-30T03:59:42.324Z,951.2
2017-03-30T04:00:50.354Z,951.1
2017-03-30T04:01:58.493Z,951.2
2017-03-30T04:03:06.548Z,951.1
2017-03-30T04:04:14.619Z,951.1
2017-03-30T04:05:22.756Z,951.1
2017-03-30T04:06:30.782Z,951.1
2017-03-30T04:07:38.870Z,951.1
2017-03-30T04:08:47.143Z,951.1
2017-03-30T04:09:55.129Z,951.1
2017-03-30T04:11:03.639Z,951.1
2017-03-30T04:12:11.220Z,951.1
2017-03-30T04:13:19.307Z,951.1
2017-03-30T04:14:27.390Z,951.1
2017-03-30T04:15:35.480Z,951.1
2017-03-30T04:16:43.621Z,951.1
2017-03-30T04:17:51.704Z,951.1
2017-03-30T04:18:59.732Z,951.1
2017-03-30T04:20:07.990Z,951.1
2017-03-30T04:21:15.925Z,951.0
2017-03-30T04:22:24.496Z,951.1
2017-03-30T04:23:32.083Z,951.1
2017-03-30T04:24:40.173Z,951.1
2017-03-30T04:25:48.264Z,951.1
2017-03-30T04:26:56.349Z,951.1
2017-03-30T04:28:04.480Z,951.1
2017-03-30T04:29:12.507Z,951.1
2017-03-30T04:30:20.758Z,951.1
2017-03-30T04:31:28.832Z,951.1
2017-03-30T04:32:36.773Z,951.1
2017-03-30T04:33:44.979Z,951.1
2017-03-30T04:34:52.971Z,951.1
2017-03-30T04:36:01.029Z,951.1
2017-03-30T04:37:09.117Z,951.1
2017-03-30T04:38:17.228Z,951.1
2017-03-30T04:39:25.794Z,951.1
2017-03-30T04:40:33.375Z,951.0
2017-03-30T04:41:41.480Z,951.1
2017-03-30T04:42:49.548Z,951.1
2017-03-30T04:43:57.638Z,951.1
2017-03-30T04:45:05.776Z,951.1
2017-03-30T04:46:13.803Z,951.1
2017-03-30T04:47:21.891Z,951.0
2017-03-30T04:48:29.978Z,951.0
2017-03-30T04:49:38.116Z,951.1
2017-03-30T04:50:46.653Z,951.1
2017-03-30T04:51:54.303Z,951.0
2017-03-30T04:53:02.380Z,951.1
2017-03-30T04:54:10.398Z,951.0
2017-03-30T04:55:18.488Z,951.0
2017-03-30T04:56:26.632Z,951.1
2017-03-30T04:57:34.657Z,951.0
2017-03-30T04:58:42.748Z,951.0
2017-03-30T04:59:50.837Z,951.0
2017-03-30T05:00:58.927Z,951.1
2017-03-30T05:02:07.513Z,951.1
2017-03-30T05:03:15.122Z,951.1
2017-03-30T05:04:23.178Z,951.0
2017-03-30T05:05:31.324Z,951.1
2017-03-30T05:06:39.357Z,951.0
2017-03-30T05:07:47.524Z,951.0
2017-03-30T05:08:55.530Z,951.0
2017-03-30T05:10:03.615Z,951.0
2017-03-30T05:11:11.701Z,951.1
2017-03-30T05:12:19.786Z,951.1
2017-03-30T05:13:27.924Z,951.0
2017-03-30T05:14:35.956Z,951.1
2017-03-30T05:15:44.043Z,951.0
2017-03-30T05:16:52.124Z,951.1
2017-03-30T05:18:00.210Z,951.1
2017-03-30T05:19:08.491Z,951.1
2017-03-30T05:20:16.395Z,951.1
2017-03-30T05:21:24.532Z,951.1
2017-03-30T05:22:32.564Z,951.1
2017-03-30T05:23:40.650Z,951.1
2017-03-30T05:24:49.238Z,951.1
2017-03-30T05:25:56.816Z,951.1
2017-03-30T05:27:04.905Z,951.1
2017-03-30T05:28:12.985Z,951.1
2017-03-30T05:29:21.217Z,951.0
2017-03-30T05:30:29.225Z,951.1
2017-03-30T05:31:37.256Z,951.0
2017-03-30T05:32:45.341Z,951.0
2017-03-30T05:33:53.420Z,951.1
2017-03-30T05:35:01.509Z,951.1
2017-03-30T05:36:10.102Z,951.1
2017-03-30T05:37:17.735Z,951.1
2017-03-30T05:38:25.766Z,951.1
2017-03-30T05:39:33.856Z,951.0
2017-03-30T05:40:42.049Z,951.1
2017-03-30T05:41:50.083Z,951.1
2017-03-30T05:42:58.118Z,951.1
2017-03-30T05:44:06.238Z,951.1
2017-03-30T05:45:14.284Z,951.1
2017-03-30T05:46:22.372Z,951.1
2017-03-30T05:47:30.512Z,951.1
2017-03-30T05:48:38.543Z,951.1
2017-03-30T05:49:46.628Z,951.1
2017-03-30T05:50:54.841Z,951.1
2017-03-30T05:52:02.807Z,951.1
2017-03-30T05:53:10.938Z,951.1
2017-03-30T05:54:18.975Z,951.1
2017-03-30T05:55:27.057Z,951.1
2017-03-30T05:56:35.139Z,951.1
2017-03-30T05:57:43.228Z,951.2
2017-03-30T05:58:51.821Z,951.2
2017-03-30T05:59:59.403Z,951.2
2017-03-30T06:01:07.491Z,951.2
2017-03-30T06:02:15.874Z,951.2
2017-03-30T06:03:23.665Z,951.1
2017-03-30T06:04:31.807Z,951.1
2017-03-30T06:05:39.836Z,951.2
2017-03-30T06:06:47.919Z,951.1
2017-03-30T06:07:56.002Z,951.1
2017-03-30T06:09:04.589Z,951.1
2017-03-30T06:10:12.247Z,951.0
2017-03-30T06:11:20.259Z,951.1
2017-03-30T06:12:28.422Z,951.1
2017-03-30T06:13:36.432Z,951.1
2017-03-30T06:14:44.517Z,951.1
2017-03-30T06:15:52.659Z,951.0
2017-03-30T06:17:00.685Z,951.0
2017-03-30T06:18:08.957Z,951.0
2017-03-30T06:19:16.864Z,951.0
2017-03-30T06:20:24.949Z,951.0
2017-03-30T06:21:33.546Z,951.0
2017-03-30T06:22:41.125Z,950.9
2017-03-30T06:23:49.212Z,951.0
2017-03-30T06:24:57.354Z,950.9
2017-03-30T06:26:05.383Z,950.9
2017-03-30T06:27:13.522Z,951.0
2017-03-30T06:28:21.562Z,950.9
2017-03-30T06:29:29.648Z,950.9
2017-03-30T06:30:37.731Z,950.9
2017-03-30T06:31:45.811Z,950.9
2017-03-30T06:32:54.402Z,950.9
2017-03-30T06:34:01.985Z,950.9
2017-03-30T06:35:10.070Z,951.0
2017-03-30T06:36:18.151Z,950.9
2017-03-30T06:37:26.269Z,951.0
2017-03-30T06:38:34.458Z,951.0
2017-03-30T06:39:42.463Z,951.0
2017-03-30T06:40:50.554Z,950.9
2017-03-30T06:41:59.008Z,950.9
2017-03-30T06:43:06.670Z,950.9
2017-03-30T06:44:15.260Z,951.0
2017-03-30T06:45:22.871Z,950.9
2017-03-30T06:46:30.932Z,951.0
2017-03-30T06:47:39.018Z,951.0
2017-03-30T06:48:47.102Z,951.0
2017-03-30T06:49:55.337Z,951.0
2017-03-30T06:51:03.271Z,951.0
2017-03-30T06:52:11.358Z,951.0
2017-03-30T06:53:19.443Z,951.0
2017-03-30T06:54:27.530Z,951.0
2017-03-30T06:55:35.814Z,951.0
2017-03-30T06:56:44.220Z,951.1
2017-03-30T06:57:51.787Z,951.1
2017-03-30T06:58:59.872Z,951.1
2017-03-30T07:00:07.953Z,951.1
2017-03-30T07:01:16.278Z,951.1
2017-03-30T07:02:24.132Z,951.0
2017-03-30T07:03:32.211Z,951.1
2017-03-30T07:04:40.303Z,951.0
2017-03-30T07:05:48.389Z,951.1
2017-03-30T07:06:56.533Z,951.1
2017-03-30T07:08:04.557Z,951.0
2017-03-30T07:09:12.642Z,951.1
2017-03-30T07:10:20.730Z,951.0
2017-03-30T07:11:28.943Z,951.0
2017-03-30T07:12:37.422Z,951.1
2017-03-30T07:13:44.989Z,951.1
2017-03-30T07:14:53.071Z,951.1
2017-03-30T07:16:01.158Z,951.1
2017-03-30T07:17:09.252Z,951.1
2017-03-30T07:18:17.396Z,951.2
2017-03-30T07:19:25.417Z,951.2
2017-03-30T07:20:33.509Z,951.2
2017-03-30T07:21:41.596Z,951.2
2017-03-30T07:22:49.750Z,951.2
2017-03-30T07:23:57.821Z,951.2
2017-03-30T07:25:05.855Z,951.1
2017-03-30T07:26:13.943Z,951.1
2017-03-30T07:27:22.216Z,951.1
2017-03-30T07:28:30.616Z,951.1
2017-03-30T07:29:38.260Z,951.2
2017-03-30T07:30:46.300Z,951.1
2017-03-30T07:31:54.365Z,951.1
2017-03-30T07:33:02.452Z,951.1
2017-03-30T07:34:10.539Z,951.1
2017-03-30T07:35:18.680Z,951.1
2017-03-30T07:36:26.709Z,951.1
2017-03-30T07:37:34.936Z,951.1
2017-03-30T07:38:43.013Z,951.1
2017-03-30T07:39:50.963Z,951.1
2017-03-30T07:40:59.556Z,951.1
2017-03-30T07:42:07.134Z,951.1
2017-03-30T07:43:15.213Z,951.1
2017-03-30T07:44:23.362Z,951.1
2017-03-30T07:45:31.394Z,951.1
2017-03-30T07:46:39.529Z,951.2
2017-03-30T07:47:47.559Z,951.2
2017-03-30T07:48:55.824Z,951.2
2017-03-30T07:50:03.734Z,951.1
2017-03-30T07:51:11.817Z,951.1
2017-03-30T07:52:20.410Z,951.1
2017-03-30T07:53:27.990Z,951.2
2017-03-30T07:54:36.139Z,951.1
2017-03-30T07:55:44.213Z,951.1
2017-03-30T07:56:52.254Z,951.1
2017-03-30T07:58:00.399Z,951.1
2017-03-30T07:59:08.513Z,951.1
2017-03-30T08:00:16.751Z,951.1
2017-03-30T08:01:24.599Z,951.1
2017-03-30T08:02:32.680Z,951.1
2017-03-30T08:03:41.272Z,951.1
2017-03-30T08:04:48.862Z,951.1
2017-03-30T08:05:56.993Z,951.1
2017-03-30T08:07:05.032Z,951.1
2017-03-30T08:08:13.116Z,951.1
2017-03-30T08:09:21.266Z,951.1
2017-03-30T08:10:29.291Z,951.1
2017-03-30T08:11:37.381Z,951.1
2017-03-30T08:12:45.481Z,951.1
2017-03-30T08:13:53.548Z,951.1
2017-03-30T08:15:02.140Z,951.1
2017-03-30T08:16:09.888Z,951.1
2017-03-30T08:17:17.850Z,951.1
2017-03-30T08:18:25.896Z,951.1
2017-03-30T08:19:33.987Z,951.1
2017-03-30T08:20:42.128Z,951.1
2017-03-30T08:21:50.333Z,951.1
2017-03-30T08:22:58.257Z,951.1
2017-03-30T08:24:06.344Z,951.1
2017-03-30T08:25:14.422Z,951.1
2017-03-30T08:26:23.011Z,951.1
2017-03-30T08:27:30.597Z,951.1
2017-03-30T08:28:38.682Z,951.1
2017-03-30T08:29:46.765Z,951.1
2017-03-30T08:30:54.847Z,951.1
2017-03-30T08:32:03.584Z,951.2
2017-03-30T08:33:11.026Z,951.1
2017-03-30T08:34:19.113Z,951.2
2017-03-30T08:35:27.205Z,951.1
2017-03-30T08:36:35.289Z,951.1
2017-03-30T08:37:43.880Z,951.1
2017-03-30T08:38:51.458Z,951.1
2017-03-30T08:39:59.546Z,951.1
2017-03-30T08:41:07.626Z,951.1
2017-03-30T08:42:15.713Z,951.1
2017-03-30T08:43:23.942Z,951.1
2017-03-30T08:44:31.894Z,951.1
2017-03-30T08:45:39.981Z,951.1
2017-03-30T08:46:48.064Z,951.1
2017-03-30T08:47:56.220Z,951.1
2017-03-30T08:49:04.742Z,951.1
2017-03-30T08:50:12.320Z,951.1
2017-03-30T08:51:20.418Z,951.1
2017-03-30T08:52:28.491Z,951.2
2017-03-30T08:53:36.576Z,951.1
2017-03-30T08:54:44.726Z,951.1
2017-03-30T08:55:52.757Z,951.1
2017-03-30T08:57:00.843Z,951.1
2017-03-30T08:58:09.060Z,951.1
2017-03-30T08:59:17.118Z,951.2
2017-03-30T09:00:25.606Z,951.1
2017-03-30T09:01:33.185Z,951.1
2017-03-30T09:02:41.275Z,951.1
2017-03-30T09:03:49.427Z,951.1
2017-03-30T09:04:57.449Z,951.2
2017-03-30T09:06:05.594Z,951.2
2017-03-30T09:07:13.627Z,951.1
2017-03-30T09:08:21.712Z,951.2
2017-03-30T09:09:29.951Z,951.2
2017-03-30T09:10:37.886Z,951.1
2017-03-30T09:11:46.476Z,951.1
2017-03-30T09:12:54.057Z,951.1
2017-03-30T09:14:02.140Z,951.1
2017-03-30T09:15:10.243Z,951.1
2017-03-30T09:16:18.334Z,951.1
2017-03-30T09:17:26.457Z,951.0
2017-03-30T09:18:34.490Z,951.1
2017-03-30T09:19:42.634Z,951.1
2017-03-30T09:20:50.661Z,951.1
2017-03-30T09:21:58.743Z,951.1
2017-03-30T09:23:07.338Z,951.1
2017-03-30T09:24:14.920Z,951.0
2017-03-30T09:25:23.001Z,951.1
2017-03-30T09:26:31.234Z,951.1
2017-03-30T09:27:39.177Z,951.0
2017-03-30T09:28:47.767Z,951.0
2017-03-30T09:29:55.350Z,951.0
2017-03-30T09:31:03.437Z,951.0
2017-03-30T09:32:11.522Z,951.0
2017-03-30T09:33:19.605Z,951.0
2017-03-30T09:34:27.764Z,951.0
2017-03-30T09:35:36.301Z,951.0
2017-03-30T09:36:44.000Z,951.0
2017-03-30T09:37:52.079Z,951.0
2017-03-30T09:39:00.058Z,951.0
2017-03-30T09:40:08.187Z,951.0
2017-03-30T09:41:16.400Z,951.0
2017-03-30T09:42:24.307Z,951.0
2017-03-30T09:43:32.392Z,951.0
2017-03-30T09:44:40.483Z,951.0
2017-03-30T09:45:49.069Z,951.0
2017-03-30T09:46:56.852Z,950.9
2017-03-30T09:48:04.809Z,950.9
2017-03-30T09:49:12.821Z,950.9
2017-03-30T09:50:20.911Z,950.9
2017-03-30T09:51:29.052Z,950.9
2017-03-30T09:52:37.077Z,950.9
2017-03-30T09:53:45.161Z,950.9
2017-03-30T09:54:53.252Z,950.9
2017-03-30T09:56:01.338Z,950.9
2017-03-30T09:57:09.924Z,950.9
2017-03-30T09:58:17.562Z,950.9
2017-03-30T09:59:25.601Z,950.9
2017-03-30T10:00:33.695Z,950.9
2017-03-30T10:01:41.774Z,950.8
2017-03-30T10:02:49.927Z,950.8
2017-03-30T10:03:58.118Z,950.8
2017-03-30T10:05:06.062Z,950.8
2017-03-30T10:06:14.132Z,950.8
2017-03-30T10:07:22.723Z,950.8
2017-03-30T10:08:30.357Z,950.8
2017-03-30T10:09:38.392Z,950.8
2017-03-30T10:10:46.476Z,950.8
2017-03-30T10:11:54.563Z,950.8
2017-03-30T10:13:02.643Z,950.8
2017-03-30T10:14:10.955Z,950.8
2017-03-30T10:15:18.867Z,950.7
2017-03-30T10:16:26.899Z,950.8
2017-03-30T10:17:34.992Z,950.7
2017-03-30T10:18:43.078Z,950.8
2017-03-30T10:19:51.668Z,950.7
2017-03-30T10:20:59.245Z,950.8
2017-03-30T10:22:07.338Z,950.7
2017-03-30T10:23:15.481Z,950.7
2017-03-30T10:24:23.505Z,950.6
2017-03-30T10:25:31.820Z,950.6
2017-03-30T10:26:39.685Z,950.6
2017-03-30T10:27:47.775Z,950.6
2017-03-30T10:28:55.859Z,950.6
2017-03-30T10:30:03.949Z,950.6
2017-03-30T10:31:12.539Z,950.5
2017-03-30T10:32:20.115Z,950.6
2017-03-30T10:33:28.205Z,950.6
2017-03-30T10:34:36.291Z,950.6
2017-03-30T10:35:44.520Z,950.6
2017-03-30T10:36:52.562Z,950.6
2017-03-30T10:38:00.554Z,950.6
2017-03-30T10:39:08.696Z,950.6
2017-03-30T10:40:16.724Z,950.5
2017-03-30T10:41:24.815Z,950.5
2017-03-30T10:42:33.429Z,950.6
2017-03-30T10:43:40.986Z,950.6
2017-03-30T10:44:49.072Z,950.5
2017-03-30T10:45:57.163Z,950.5
2017-03-30T10:47:05.422Z,950.5
2017-03-30T10:48:13.392Z,950.5
2017-03-30T10:49:21.431Z,950.5
2017-03-30T10:50:29.509Z,950.5
2017-03-30T10:51:37.591Z,950.5
2017-03-30T10:52:45.688Z,950.4
2017-03-30T10:53:54.285Z,950.4
2017-03-30T10:55:01.918Z,950.4
2017-03-30T10:56:09.948Z,950.4
2017-03-30T10:57:18.177Z,950.4
2017-03-30T10:58:26.258Z,950.4
2017-03-30T10:59:34.267Z,950.4
2017-03-30T11:00:42.296Z,950.4
2017-03-30T11:01:50.381Z,950.3
2017-03-30T11:02:58.466Z,950.4
2017-03-30T11:04:06.552Z,950.3
2017-03-30T11:05:16.789Z,950.3
2017-03-30T11:06:22.729Z,950.3
2017-03-30T11:07:30.811Z,950.3
2017-03-30T11:08:39.047Z,950.3
2017-03-30T11:09:46.988Z,950.3
2017-03-30T11:10:55.134Z,950.3
2017-03-30T11:12:03.158Z,950.2
2017-03-30T11:13:11.247Z,950.2
2017-03-30T11:14:19.334Z,950.3
2017-03-30T11:15:27.417Z,950.3
2017-03-30T11:16:36.012Z,950.2
2017-03-30T11:17:43.600Z,950.2
2017-03-30T11:18:51.785Z,950.2
2017-03-30T11:19:59.862Z,950.2
2017-03-30T11:21:07.853Z,950.2
2017-03-30T11:22:16.008Z,950.2
2017-03-30T11:23:24.028Z,950.2
2017-03-30T11:24:32.117Z,950.2
2017-03-30T11:25:40.202Z,950.2
2017-03-30T11:26:48.791Z,950.2
2017-03-30T11:27:56.433Z,950.2
2017-03-30T11:29:04.466Z,950.1
2017-03-30T11:30:12.549Z,950.1
2017-03-30T11:31:20.629Z,950.1
2017-03-30T11:32:28.718Z,950.1
2017-03-30T11:33:36.863Z,950.1
2017-03-30T11:34:45.037Z,950.1
2017-03-30T11:35:52.979Z,950.1
2017-03-30T11:37:01.073Z,950.1
2017-03-30T11:38:09.157Z,950.0
2017-03-30T11:39:18.268Z,950.0
2017-03-30T11:40:25.329Z,950.0
2017-03-30T11:41:33.414Z,949.9
2017-03-30T11:42:41.552Z,950.0
2017-03-30T11:43:49.581Z,950.0
2017-03-30T11:44:57.738Z,949.9
2017-03-30T11:46:05.914Z,949.9
2017-03-30T11:47:13.851Z,949.9
2017-03-30T11:48:21.937Z,949.9
2017-03-30T11:49:30.025Z,949.9
2017-03-30T11:50:38.162Z,949.9
2017-03-30T11:51:46.192Z,949.9
2017-03-30T11:52:54.282Z,949.9
2017-03-30T11:54:02.366Z,949.9
2017-03-30T11:55:10.456Z,949.9
2017-03-30T11:56:18.602Z,949.8
2017-03-30T11:57:26.636Z,949.9
2017-03-30T11:58:34.774Z,949.9
2017-03-30T11:59:42.809Z,949.8
2017-03-30T12:00:50.901Z,949.8
2017-03-30T12:01:59.043Z,949.8
2017-03-30T12:03:07.151Z,949.8
2017-03-30T12:04:15.158Z,949.8
2017-03-30T12:05:23.245Z,949.8
2017-03-30T12:06:31.351Z,949.7
2017-03-30T12:07:39.472Z,949.7
2017-03-30T12:08:47.510Z,949.7
2017-03-30T12:09:55.596Z,949.7
2017-03-30T12:11:03.675Z,949.7
2017-03-30T12:12:11.763Z,949.7
2017-03-30T12:13:20.009Z,949.7
2017-03-30T12:14:28.521Z,949.7
2017-03-30T12:15:36.025Z,949.7
2017-03-30T12:16:44.111Z,949.7
2017-03-30T12:17:52.201Z,949.6
2017-03-30T12:19:00.526Z,949.6
2017-03-30T12:20:08.375Z,949.6
2017-03-30T12:21:16.461Z,949.6
2017-03-30T12:22:24.546Z,949.6
2017-03-30T12:23:32.633Z,949.6
2017-03-30T12:24:41.249Z,949.6
2017-03-30T12:25:49.383Z,949.5
2017-03-30T12:26:56.887Z,949.6
2017-03-30T12:28:04.984Z,949.6
2017-03-30T12:29:13.243Z,949.6
2017-03-30T12:30:21.657Z,949.5
2017-03-30T12:31:29.240Z,949.5
2017-03-30T12:32:37.327Z,949.5
2017-03-30T12:33:45.414Z,949.5
2017-03-30T12:34:53.504Z,949.5
2017-03-30T12:36:01.642Z,949.5
2017-03-30T12:37:09.673Z,949.5
2017-03-30T12:38:17.756Z,949.5
2017-03-30T12:39:25.998Z,949.4
2017-03-30T12:40:34.064Z,949.4
2017-03-30T12:41:42.074Z,949.4
2017-03-30T12:42:50.103Z,949.5
2017-03-30T12:43:58.356Z,949.5
2017-03-30T12:45:06.295Z,949.4
2017-03-30T12:46:14.421Z,949.4
2017-03-30T12:47:22.506Z,949.4
2017-03-30T12:48:30.536Z,949.3
2017-03-30T12:49:38.624Z,949.3
2017-03-30T12:50:46.767Z,949.3
2017-03-30T12:51:54.798Z,949.3
2017-03-30T12:53:03.386Z,949.3
2017-03-30T12:54:10.969Z,949.3
2017-03-30T12:55:19.060Z,949.3
2017-03-30T12:56:27.146Z,949.3
2017-03-30T12:57:35.230Z,949.3
2017-03-30T12:58:43.369Z,949.3
2017-03-30T12:59:51.403Z,949.3
2017-03-30T13:00:59.529Z,949.3
2017-03-30T13:02:07.760Z,949.2
2017-03-30T13:03:15.671Z,949.2
2017-03-30T13:04:24.260Z,949.2
2017-03-30T13:05:31.838Z,949.2
2017-03-30T13:06:39.924Z,949.2
2017-03-30T13:07:48.015Z,949.2
2017-03-30T13:08:56.113Z,949.2
2017-03-30T13:10:04.247Z,949.2
2017-03-30T13:11:12.279Z,949.1
2017-03-30T13:12:20.454Z,949.2
2017-03-30T13:13:28.456Z,949.1
2017-03-30T13:14:36.543Z,949.1
2017-03-30T13:15:45.131Z,949.1
2017-03-30T13:16:52.717Z,949.1
2017-03-30T13:18:01.004Z,949.1
2017-03-30T13:19:08.893Z,949.0
2017-03-30T13:20:16.978Z,949.0
2017-03-30T13:21:25.121Z,949.0
2017-03-30T13:22:33.150Z,949.0
2017-03-30T13:23:41.318Z,949.0
2017-03-30T13:24:49.328Z,949.0
2017-03-30T13:25:57.414Z,948.9
2017-03-30T13:27:05.628Z,948.9
2017-03-30T13:28:13.598Z,948.9
2017-03-30T13:29:21.675Z,948.9
2017-03-30T13:30:29.787Z,948.9
2017-03-30T13:31:37.851Z,948.9
2017-03-30T13:32:46.445Z,948.8
2017-03-30T13:33:54.134Z,948.8
2017-03-30T13:35:02.152Z,948.8
2017-03-30T13:36:10.194Z,948.8
2017-03-30T13:37:18.277Z,948.8
2017-03-30T13:38:26.603Z,948.8
2017-03-30T13:39:34.528Z,948.8
2017-03-30T13:40:42.533Z,948.8
2017-03-30T13:41:50.621Z,948.8
2017-03-30T13:42:58.709Z,948.7
2017-03-30T13:44:06.852Z,948.7
2017-03-30T13:45:14.918Z,948.7
2017-03-30T13:46:22.966Z,948.7
2017-03-30T13:47:31.053Z,948.7
2017-03-30T13:48:39.136Z,948.8
2017-03-30T13:49:47.278Z,948.7
2017-03-30T13:50:55.310Z,948.7
2017-03-30T13:52:03.393Z,948.7
2017-03-30T13:53:11.480Z,948.7
2017-03-30T13:54:19.568Z,948.7
2017-03-30T13:55:27.738Z,948.7
2017-03-30T13:56:35.772Z,948.7
2017-03-30T13:57:43.825Z,948.7
2017-03-30T13:58:51.926Z,948.6
2017-03-30T14:00:00.189Z,948.6
2017-03-30T14:01:08.309Z,948.6
2017-03-30T14:02:16.179Z,948.6
2017-03-30T14:03:24.263Z,948.6
2017-03-30T14:04:32.348Z,948.6
2017-03-30T14:05:40.938Z,948.6
2017-03-30T14:06:48.581Z,948.6
2017-03-30T14:07:56.618Z,948.6
2017-03-30T14:09:04.693Z,948.6
2017-03-30T14:10:12.783Z,948.6
2017-03-30T14:11:20.870Z,948.6
2017-03-30T14:12:29.012Z,948.6
2017-03-30T14:13:37.042Z,948.6
2017-03-30T14:14:45.132Z,948.6
2017-03-30T14:15:53.404Z,948.6
2017-03-30T14:17:01.478Z,948.6
2017-03-30T14:18:09.528Z,948.6
2017-03-30T14:19:17.487Z,948.5
2017-03-30T14:20:25.570Z,948.5
2017-03-30T14:21:33.717Z,948.5
2017-03-30T14:22:41.762Z,948.5
2017-03-30T14:23:50.364Z,948.5
2017-03-30T14:24:57.923Z,948.5
2017-03-30T14:26:06.016Z,948.5
2017-03-30T14:27:14.105Z,948.5
2017-03-30T14:28:22.356Z,948.5
2017-03-30T14:29:30.336Z,948.4
2017-03-30T14:30:38.369Z,948.5
2017-03-30T14:31:46.458Z,948.5
2017-03-30T14:32:54.546Z,948.5
2017-03-30T14:34:02.627Z,948.4
2017-03-30T14:35:11.241Z,948.4
2017-03-30T14:36:18.806Z,948.4